AFR106 LPPT-ESSB
Flight info
| Callsign | AFR106 |
|---|---|
| Flight time | N/A |
| Altitude | 38000 |
| Route | IXIDA DCT TOSDI N745 ZMR N873 DELOG DCT YURZI UL14 TEPRA UN867 MOKOR UN873 BAZOS DCT CMB DCT ADUTO N873 GOTEX DCT UMTON Y430 TINKA |
| Aircraft | A20N/M-SDE2E3FGHIRWXY/LB1 |
Departure
| Time | 2026-05-04 08:20 |
|---|---|
| Airport | Lisbon Humberto Delgado Airport (LPPT) |
Arrival
| Time | N/A |
|---|---|
| Airport | Stockholm-Bromma Airport (ESSB) |
| Time | Latitude | Longitude | Altitude | Speed | Heading |
|---|---|---|---|---|---|
| 2026-05-04 07:58 | 38.76981 | -9.13097 | 350 ft | 0 kts | 72° |
| 2026-05-04 08:10 | 38.76933 | -9.13153 | 357 ft | 1 kts | 348° |
| 2026-05-04 08:11 | 38.76932 | -9.13152 | 358 ft | 1 kts | 348° |
| 2026-05-04 08:12 | 38.76934 | -9.13153 | 357 ft | 1 kts | 348° |
| 2026-05-04 08:12 | 38.76937 | -9.13154 | 356 ft | 0 kts | 348° |
| 2026-05-04 08:13 | 38.76942 | -9.13155 | 354 ft | 1 kts | 347° |
| 2026-05-04 08:13 | 38.76956 | -9.13159 | 359 ft | 3 kts | 348° |
| 2026-05-04 08:13 | 38.76994 | -9.13170 | 356 ft | 8 kts | 346° |
| 2026-05-04 08:13 | 38.77022 | -9.13229 | 353 ft | 10 kts | 265° |
| 2026-05-04 08:14 | 38.77055 | -9.13304 | 352 ft | 11 kts | 340° |
| 2026-05-04 08:14 | 38.77142 | -9.13329 | 359 ft | 13 kts | 348° |
| 2026-05-04 08:14 | 38.77225 | -9.13351 | 352 ft | 13 kts | 348° |
| 2026-05-04 08:16 | 38.78224 | -9.13619 | 355 ft | 27 kts | 348° |
| 2026-05-04 08:16 | 38.78410 | -9.13669 | 349 ft | 28 kts | 348° |
| 2026-05-04 08:16 | 38.78595 | -9.13691 | 355 ft | 22 kts | 37° |
| 2026-05-04 08:17 | 38.78676 | -9.13550 | 352 ft | 20 kts | 21° |
| 2026-05-04 08:17 | 38.78813 | -9.13477 | 353 ft | 23 kts | 22° |
| 2026-05-04 08:17 | 38.78970 | -9.13393 | 353 ft | 26 kts | 22° |
| 2026-05-04 08:17 | 38.79141 | -9.13302 | 355 ft | 28 kts | 22° |
| 2026-05-04 08:19 | 38.79605 | -9.12802 | 358 ft | 16 kts | 202° |
| 2026-05-04 08:19 | 38.79482 | -9.12869 | 354 ft | 35 kts | 203° |
| 2026-05-04 08:20 | 38.78993 | -9.13130 | 354 ft | 118 kts | 202° |
| 2026-05-04 08:20 | 38.78003 | -9.13647 | 511 ft | 176 kts | 205° |
| 2026-05-04 08:20 | 38.76809 | -9.14309 | 1096 ft | 194 kts | 206° |
| 2026-05-04 08:20 | 38.75551 | -9.15090 | 1834 ft | 209 kts | 206° |
| 2026-05-04 08:21 | 38.74143 | -9.15830 | 2447 ft | 227 kts | 202° |
| 2026-05-04 08:21 | 38.72628 | -9.16581 | 3178 ft | 239 kts | 203° |
| 2026-05-04 08:21 | 38.71053 | -9.17377 | 3863 ft | 255 kts | 203° |
| 2026-05-04 08:21 | 38.69371 | -9.18246 | 4711 ft | 265 kts | 203° |
| 2026-05-04 08:22 | 38.67661 | -9.19181 | 5623 ft | 269 kts | 208° |
| 2026-05-04 08:22 | 38.66167 | -9.20622 | 6537 ft | 271 kts | 231° |
| 2026-05-04 08:24 | 38.72825 | -9.30381 | 11295 ft | 355 kts | 23° |
| 2026-05-04 08:24 | 38.74984 | -9.28658 | 11711 ft | 374 kts | 31° |
| 2026-05-04 08:24 | 38.77141 | -9.26719 | 12394 ft | 382 kts | 31° |
| 2026-05-04 08:24 | 38.79337 | -9.24754 | 13132 ft | 388 kts | 31° |
| 2026-05-04 08:25 | 38.81581 | -9.22779 | 13835 ft | 394 kts | 30° |
| 2026-05-04 08:25 | 38.83856 | -9.20779 | 14488 ft | 400 kts | 32° |
| 2026-05-04 08:25 | 38.85965 | -9.18401 | 15167 ft | 408 kts | 42° |
| 2026-05-04 08:25 | 38.87901 | -9.15712 | 15883 ft | 412 kts | 44° |
| 2026-05-04 08:26 | 38.89790 | -9.12980 | 16602 ft | 417 kts | 45° |
| 2026-05-04 08:27 | 39.03732 | -8.92785 | 20984 ft | 444 kts | 44° |
| 2026-05-04 08:28 | 39.05789 | -8.89805 | 21563 ft | 447 kts | 44° |
| 2026-05-04 08:28 | 39.07831 | -8.86842 | 22138 ft | 450 kts | 44° |
| 2026-05-04 08:28 | 39.09917 | -8.83815 | 22718 ft | 453 kts | 44° |
| 2026-05-04 08:28 | 39.12013 | -8.80768 | 23287 ft | 457 kts | 44° |
| 2026-05-04 08:29 | 39.14128 | -8.77692 | 23829 ft | 460 kts | 44° |
| 2026-05-04 08:29 | 39.16260 | -8.74588 | 24246 ft | 465 kts | 44° |
| 2026-05-04 08:29 | 39.18408 | -8.71453 | 24674 ft | 469 kts | 44° |
| 2026-05-04 08:31 | 39.33900 | -8.48716 | 27603 ft | 489 kts | 44° |
| 2026-05-04 08:33 | 39.49488 | -8.25673 | 31314 ft | 477 kts | 44° |
| 2026-05-04 08:33 | 39.51654 | -8.22455 | 31957 ft | 471 kts | 44° |
| 2026-05-04 08:35 | 39.65904 | -8.01244 | 35619 ft | 428 kts | 41° |
| 2026-05-04 08:35 | 39.67955 | -7.98509 | 35720 ft | 430 kts | 39° |
| 2026-05-04 08:35 | 39.72302 | -7.93107 | 35910 ft | 436 kts | 38° |
| 2026-05-04 08:37 | 39.85743 | -7.76297 | 36495 ft | 457 kts | 41° |
| 2026-05-04 08:37 | 39.87965 | -7.73430 | 36807 ft | 454 kts | 41° |
| 2026-05-04 08:37 | 39.90196 | -7.70551 | 37194 ft | 450 kts | 41° |
| 2026-05-04 08:38 | 39.92410 | -7.67705 | 37573 ft | 445 kts | 40° |
| 2026-05-04 08:38 | 39.94611 | -7.64888 | 37859 ft | 443 kts | 40° |
| 2026-05-04 08:38 | 39.96818 | -7.62073 | 37961 ft | 445 kts | 40° |
| 2026-05-04 08:40 | 40.12786 | -7.41691 | 38062 ft | 476 kts | 41° |
| 2026-05-04 08:40 | 40.15161 | -7.38645 | 38062 ft | 481 kts | 41° |
| 2026-05-04 08:41 | 40.19980 | -7.32452 | 38061 ft | 491 kts | 41° |
| 2026-05-04 08:41 | 40.24881 | -7.26140 | 38078 ft | 496 kts | 41° |
| 2026-05-04 08:42 | 40.29752 | -7.19847 | 38056 ft | 495 kts | 41° |
| 2026-05-04 08:42 | 40.34652 | -7.13507 | 38060 ft | 495 kts | 41° |
| 2026-05-04 08:43 | 40.39548 | -7.07162 | 38058 ft | 495 kts | 41° |
| 2026-05-04 08:43 | 40.44445 | -7.00801 | 38063 ft | 495 kts | 41° |
| 2026-05-04 08:44 | 40.49303 | -6.94479 | 38064 ft | 495 kts | 42° |
| 2026-05-04 08:46 | 40.68821 | -6.68934 | 38059 ft | 496 kts | 42° |
| 2026-05-04 08:46 | 40.73706 | -6.62506 | 38064 ft | 496 kts | 43° |
| 2026-05-04 08:47 | 40.78582 | -6.56075 | 38062 ft | 496 kts | 43° |
| 2026-05-04 08:47 | 40.83452 | -6.49638 | 38055 ft | 496 kts | 43° |
| 2026-05-04 08:48 | 40.88290 | -6.43230 | 38054 ft | 497 kts | 43° |
| 2026-05-04 08:48 | 40.93175 | -6.36746 | 38048 ft | 498 kts | 43° |
| 2026-05-04 08:49 | 40.98063 | -6.30241 | 38053 ft | 498 kts | 43° |
| 2026-05-04 08:50 | 41.15921 | -6.08776 | 38026 ft | 496 kts | 40° |
| 2026-05-04 08:51 | 41.21056 | -6.02634 | 38035 ft | 497 kts | 40° |
| 2026-05-04 08:51 | 41.26181 | -5.96471 | 38036 ft | 497 kts | 40° |
| 2026-05-04 08:52 | 41.31301 | -5.90301 | 38031 ft | 497 kts | 40° |
| 2026-05-04 08:52 | 41.36385 | -5.84162 | 38032 ft | 497 kts | 40° |
| 2026-05-04 08:54 | 41.57784 | -5.61307 | 38020 ft | 491 kts | 22° |
| 2026-05-04 08:55 | 41.64002 | -5.57681 | 38019 ft | 491 kts | 20° |
| 2026-05-04 08:55 | 41.70307 | -5.54177 | 38015 ft | 490 kts | 20° |
| 2026-05-04 09:01 | 42.36157 | -5.16598 | 38004 ft | 491 kts | 21° |
| 2026-05-04 09:01 | 42.42433 | -5.12966 | 37998 ft | 490 kts | 21° |
| 2026-05-04 09:02 | 42.48664 | -5.09352 | 37995 ft | 490 kts | 21° |
| 2026-05-04 09:02 | 42.54933 | -5.05709 | 37998 ft | 490 kts | 21° |
| 2026-05-04 09:03 | 42.61188 | -5.02065 | 38005 ft | 489 kts | 21° |
| 2026-05-04 09:03 | 42.67442 | -4.98414 | 38006 ft | 489 kts | 21° |
| 2026-05-04 09:04 | 42.73692 | -4.94756 | 37996 ft | 489 kts | 21° |
| 2026-05-04 09:04 | 42.79915 | -4.91107 | 38009 ft | 491 kts | 21° |
| 2026-05-04 09:05 | 42.86193 | -4.87416 | 38015 ft | 492 kts | 21° |
| 2026-05-04 09:05 | 42.92473 | -4.83715 | 38022 ft | 491 kts | 21° |
| 2026-05-04 09:06 | 42.98746 | -4.80011 | 38020 ft | 491 kts | 21° |
| 2026-05-04 09:08 | 43.23749 | -4.65167 | 38034 ft | 490 kts | 21° |
| 2026-05-04 09:08 | 43.29955 | -4.61461 | 38039 ft | 490 kts | 22° |
| 2026-05-04 09:09 | 43.36203 | -4.57722 | 38041 ft | 489 kts | 22° |
| 2026-05-04 09:09 | 43.42439 | -4.53982 | 38040 ft | 490 kts | 22° |
| 2026-05-04 09:10 | 43.48687 | -4.50227 | 38039 ft | 490 kts | 22° |
| 2026-05-04 09:10 | 43.54932 | -4.46464 | 38051 ft | 490 kts | 22° |
| 2026-05-04 09:11 | 43.61136 | -4.42718 | 38038 ft | 490 kts | 22° |
| 2026-05-04 09:11 | 43.67374 | -4.38942 | 38034 ft | 489 kts | 22° |
| 2026-05-04 09:12 | 43.73607 | -4.35161 | 38031 ft | 489 kts | 22° |
| 2026-05-04 09:14 | 43.98483 | -4.19984 | 38020 ft | 489 kts | 22° |
| 2026-05-04 09:14 | 44.04709 | -4.16164 | 38020 ft | 489 kts | 22° |
| 2026-05-04 09:15 | 44.10925 | -4.12341 | 38021 ft | 489 kts | 22° |
| 2026-05-04 09:15 | 44.17102 | -4.08533 | 38030 ft | 489 kts | 23° |
| 2026-05-04 09:17 | 44.44388 | -3.89708 | 38018 ft | 487 kts | 29° |
| 2026-05-04 09:18 | 44.50276 | -3.85016 | 38015 ft | 487 kts | 29° |
| 2026-05-04 09:18 | 44.56167 | -3.80318 | 38011 ft | 487 kts | 29° |
| 2026-05-04 09:19 | 44.62051 | -3.75624 | 38008 ft | 486 kts | 29° |
| 2026-05-04 09:19 | 44.67893 | -3.70957 | 38016 ft | 486 kts | 29° |
| 2026-05-04 09:20 | 44.73774 | -3.66247 | 38012 ft | 486 kts | 29° |
| 2026-05-04 09:20 | 44.79655 | -3.61526 | 38018 ft | 487 kts | 29° |
| 2026-05-04 09:21 | 44.85532 | -3.56797 | 38013 ft | 487 kts | 29° |
| 2026-05-04 09:21 | 44.91409 | -3.52057 | 38013 ft | 487 kts | 29° |
| 2026-05-04 09:22 | 44.97243 | -3.47340 | 38012 ft | 486 kts | 30° |
| 2026-05-04 09:22 | 45.03115 | -3.42581 | 38013 ft | 487 kts | 29° |
| 2026-05-04 09:23 | 45.09004 | -3.37797 | 38010 ft | 489 kts | 29° |
| 2026-05-04 09:23 | 45.14898 | -3.32998 | 38011 ft | 489 kts | 30° |
| 2026-05-04 09:25 | 45.38351 | -3.13784 | 38000 ft | 486 kts | 30° |
| 2026-05-04 09:26 | 45.44163 | -3.08993 | 38004 ft | 486 kts | 30° |
| 2026-05-04 09:26 | 45.50019 | -3.04155 | 37999 ft | 487 kts | 30° |
| 2026-05-04 09:27 | 45.55879 | -2.99302 | 37998 ft | 487 kts | 30° |
| 2026-05-04 09:27 | 45.61728 | -2.94446 | 38006 ft | 486 kts | 30° |
| 2026-05-04 09:28 | 45.67531 | -2.89617 | 37997 ft | 486 kts | 30° |
| 2026-05-04 09:28 | 45.73370 | -2.84746 | 38003 ft | 486 kts | 30° |
| 2026-05-04 09:29 | 45.79206 | -2.79865 | 38006 ft | 485 kts | 30° |
| 2026-05-04 09:29 | 45.85031 | -2.74981 | 37988 ft | 485 kts | 30° |
| 2026-05-04 09:30 | 45.90857 | -2.70085 | 37995 ft | 485 kts | 30° |
| 2026-05-04 09:30 | 45.96646 | -2.65208 | 37999 ft | 485 kts | 31° |
| 2026-05-04 09:31 | 46.02464 | -2.60294 | 37991 ft | 485 kts | 31° |
| 2026-05-04 09:31 | 46.08277 | -2.55373 | 37995 ft | 485 kts | 31° |
| 2026-05-04 09:32 | 46.14100 | -2.50468 | 37985 ft | 485 kts | 27° |
| 2026-05-04 09:34 | 46.37029 | -2.44412 | 38003 ft | 482 kts | 5° |
| 2026-05-04 09:34 | 46.40363 | -2.43905 | 37993 ft | 482 kts | 5° |
| 2026-05-04 09:34 | 46.47019 | -2.42717 | 37992 ft | 482 kts | 12° |
| 2026-05-04 09:35 | 46.53241 | -2.39351 | 37991 ft | 482 kts | 27° |
| 2026-05-04 09:35 | 46.59153 | -2.34713 | 37994 ft | 484 kts | 30° |
| 2026-05-04 09:37 | 46.82470 | -2.15178 | 37995 ft | 484 kts | 30° |
| 2026-05-04 09:38 | 46.88320 | -2.10289 | 37993 ft | 484 kts | 30° |
| 2026-05-04 09:38 | 46.94287 | -2.05727 | 37982 ft | 484 kts | 26° |
| 2026-05-04 09:39 | 47.00316 | -2.01315 | 37993 ft | 485 kts | 32° |
| 2026-05-04 09:39 | 47.05844 | -1.95742 | 37990 ft | 486 kts | 37° |
| 2026-05-04 09:40 | 47.11268 | -1.89817 | 37995 ft | 486 kts | 38° |
| 2026-05-04 09:40 | 47.16652 | -1.83808 | 37995 ft | 486 kts | 38° |
| 2026-05-04 09:42 | 47.37412 | -1.58676 | 37994 ft | 483 kts | 52° |
| 2026-05-04 09:43 | 47.41613 | -1.50948 | 37991 ft | 482 kts | 53° |
| 2026-05-04 09:43 | 47.45716 | -1.43123 | 37988 ft | 482 kts | 53° |
| 2026-05-04 09:44 | 47.49785 | -1.35343 | 37988 ft | 482 kts | 53° |
| 2026-05-04 09:46 | 47.66207 | -1.03960 | 37978 ft | 482 kts | 54° |
| 2026-05-04 09:46 | 47.70275 | -0.96135 | 37974 ft | 482 kts | 54° |
| 2026-05-04 09:47 | 47.74364 | -0.88246 | 37979 ft | 482 kts | 54° |
| 2026-05-04 09:49 | 47.90668 | -0.56550 | 37968 ft | 483 kts | 54° |
| 2026-05-04 09:51 | 48.04880 | -0.28617 | 37966 ft | 482 kts | 54° |
| 2026-05-04 09:51 | 48.08913 | -0.20717 | 37966 ft | 481 kts | 53° |
| 2026-05-04 09:52 | 48.13020 | -0.12810 | 37963 ft | 481 kts | 53° |
| 2026-05-04 09:52 | 48.17133 | -0.04896 | 37966 ft | 481 kts | 53° |
| 2026-05-04 09:53 | 48.21232 | 0.03031 | 37959 ft | 482 kts | 53° |
| 2026-05-04 09:53 | 48.25335 | 0.11003 | 37963 ft | 483 kts | 54° |
| 2026-05-04 09:54 | 48.29402 | 0.18930 | 37967 ft | 482 kts | 54° |
| 2026-05-04 09:54 | 48.33489 | 0.26919 | 37967 ft | 482 kts | 54° |
| 2026-05-04 09:55 | 48.37572 | 0.34922 | 37963 ft | 482 kts | 54° |
| 2026-05-04 09:55 | 48.41660 | 0.42920 | 37967 ft | 482 kts | 53° |
| 2026-05-04 09:56 | 48.45749 | 0.50874 | 37971 ft | 485 kts | 53° |
| 2026-05-04 09:56 | 48.49879 | 0.58919 | 37970 ft | 485 kts | 53° |
| 2026-05-04 09:57 | 48.54637 | 0.66110 | 37970 ft | 486 kts | 40° |
| 2026-05-04 09:57 | 48.59955 | 0.72418 | 37971 ft | 487 kts | 37° |
| 2026-05-04 09:58 | 48.65335 | 0.78518 | 37976 ft | 487 kts | 37° |
| 2026-05-04 09:58 | 48.70748 | 0.84649 | 37974 ft | 485 kts | 37° |
| 2026-05-04 10:00 | 48.92230 | 1.09361 | 37985 ft | 486 kts | 37° |
| 2026-05-04 10:04 | 49.27396 | 1.57111 | 37990 ft | 483 kts | 44° |
| 2026-05-04 10:04 | 49.32262 | 1.64206 | 37991 ft | 482 kts | 44° |
| 2026-05-04 10:05 | 49.37075 | 1.71242 | 37975 ft | 481 kts | 44° |
| 2026-05-04 10:05 | 49.41910 | 1.78331 | 37989 ft | 480 kts | 44° |
| 2026-05-04 10:06 | 49.46753 | 1.85452 | 37992 ft | 483 kts | 44° |
| 2026-05-04 10:06 | 49.51597 | 1.92623 | 38002 ft | 484 kts | 46° |
| 2026-05-04 10:08 | 49.67351 | 2.19210 | 37988 ft | 480 kts | 49° |
| 2026-05-04 10:08 | 49.71837 | 2.26847 | 37975 ft | 480 kts | 49° |
| 2026-05-04 10:09 | 49.76307 | 2.34464 | 37988 ft | 482 kts | 49° |
| 2026-05-04 10:09 | 49.80803 | 2.42149 | 37988 ft | 482 kts | 49° |
| 2026-05-04 10:10 | 49.85294 | 2.49849 | 37988 ft | 482 kts | 49° |
| 2026-05-04 10:10 | 49.89778 | 2.57563 | 37985 ft | 482 kts | 49° |
| 2026-05-04 10:11 | 49.94257 | 2.65292 | 37994 ft | 482 kts | 49° |
| 2026-05-04 10:11 | 49.98696 | 2.72974 | 37993 ft | 480 kts | 49° |
| 2026-05-04 10:12 | 50.03154 | 2.80712 | 37993 ft | 481 kts | 49° |
| 2026-05-04 10:12 | 50.07608 | 2.88468 | 37989 ft | 481 kts | 49° |
| 2026-05-04 10:13 | 50.12060 | 2.96243 | 37988 ft | 481 kts | 49° |
| 2026-05-04 10:13 | 50.16477 | 3.03979 | 37992 ft | 481 kts | 49° |
| 2026-05-04 10:14 | 50.20965 | 3.11688 | 37985 ft | 480 kts | 44° |
| 2026-05-04 10:16 | 50.41469 | 3.28797 | 37979 ft | 479 kts | 24° |
| 2026-05-04 10:16 | 50.44499 | 3.30992 | 37992 ft | 480 kts | 25° |
| 2026-05-04 10:16 | 50.50560 | 3.35443 | 37995 ft | 481 kts | 25° |
| 2026-05-04 10:17 | 50.56667 | 3.39771 | 37992 ft | 481 kts | 23° |
| 2026-05-04 10:19 | 50.81214 | 3.56675 | 37991 ft | 482 kts | 23° |
| 2026-05-04 10:19 | 50.87361 | 3.60959 | 37988 ft | 483 kts | 23° |
| 2026-05-04 10:20 | 50.93514 | 3.65278 | 37989 ft | 484 kts | 24° |
| 2026-05-04 10:20 | 50.99649 | 3.69676 | 37987 ft | 484 kts | 24° |
| 2026-05-04 10:21 | 51.05736 | 3.74072 | 37984 ft | 484 kts | 24° |
| 2026-05-04 10:21 | 51.11864 | 3.78503 | 37985 ft | 484 kts | 24° |
| 2026-05-04 10:22 | 51.21074 | 3.85177 | 37986 ft | 486 kts | 24° |
| 2026-05-04 10:23 | 51.27223 | 3.89654 | 37993 ft | 486 kts | 24° |
| 2026-05-04 10:25 | 51.51833 | 4.07752 | 37997 ft | 488 kts | 24° |
| 2026-05-04 10:25 | 51.57996 | 4.12317 | 37996 ft | 488 kts | 24° |
| 2026-05-04 10:26 | 51.64160 | 4.16897 | 38001 ft | 488 kts | 24° |
| 2026-05-04 10:26 | 51.70282 | 4.21458 | 37983 ft | 488 kts | 24° |
| 2026-05-04 10:27 | 51.76444 | 4.26066 | 37989 ft | 488 kts | 24° |
| 2026-05-04 10:27 | 51.82603 | 4.30691 | 37991 ft | 488 kts | 24° |
| 2026-05-04 10:28 | 51.88760 | 4.35329 | 37989 ft | 488 kts | 24° |
| 2026-05-04 10:28 | 51.94922 | 4.39984 | 37990 ft | 488 kts | 24° |
| 2026-05-04 10:29 | 52.01030 | 4.44613 | 37995 ft | 488 kts | 23° |
| 2026-05-04 10:29 | 52.07172 | 4.49281 | 37986 ft | 487 kts | 23° |
| 2026-05-04 10:30 | 52.13310 | 4.53960 | 37988 ft | 487 kts | 23° |
| 2026-05-04 10:30 | 52.18410 | 4.57858 | 37986 ft | 487 kts | 23° |
| 2026-05-04 10:31 | 52.24543 | 4.62561 | 37988 ft | 485 kts | 23° |
| 2026-05-04 10:32 | 52.45824 | 4.78985 | 37995 ft | 483 kts | 23° |
| 2026-05-04 10:33 | 52.51799 | 4.83969 | 37991 ft | 483 kts | 31° |
| 2026-05-04 10:33 | 52.55267 | 4.88538 | 37989 ft | 484 kts | 45° |
| 2026-05-04 10:33 | 52.56810 | 4.91292 | 37994 ft | 485 kts | 48° |
| 2026-05-04 10:34 | 52.61086 | 4.99782 | 37988 ft | 486 kts | 51° |
| 2026-05-04 10:34 | 52.65249 | 5.08588 | 37998 ft | 489 kts | 52° |
| 2026-05-04 10:35 | 52.69409 | 5.17436 | 37991 ft | 487 kts | 51° |
| 2026-05-04 10:35 | 52.73566 | 5.26231 | 37998 ft | 485 kts | 51° |
| 2026-05-04 10:36 | 52.77722 | 5.35004 | 37999 ft | 485 kts | 51° |
| 2026-05-04 10:36 | 52.81849 | 5.43741 | 37998 ft | 485 kts | 51° |
| 2026-05-04 10:37 | 52.85993 | 5.52559 | 38000 ft | 485 kts | 51° |
| 2026-05-04 10:37 | 52.90131 | 5.61396 | 38006 ft | 486 kts | 51° |
| 2026-05-04 10:39 | 53.04560 | 5.92461 | 38010 ft | 486 kts | 51° |
| 2026-05-04 10:40 | 53.08677 | 6.01393 | 38009 ft | 486 kts | 51° |
| 2026-05-04 10:40 | 53.12783 | 6.10335 | 38010 ft | 485 kts | 52° |
| 2026-05-04 10:41 | 53.16875 | 6.19274 | 38003 ft | 486 kts | 51° |
| 2026-05-04 10:41 | 53.20944 | 6.28201 | 38003 ft | 487 kts | 51° |
| 2026-05-04 10:42 | 53.25035 | 6.37211 | 37997 ft | 487 kts | 51° |
| 2026-05-04 10:42 | 53.29120 | 6.46237 | 37998 ft | 487 kts | 52° |
| 2026-05-04 10:43 | 53.33198 | 6.55276 | 37997 ft | 487 kts | 51° |
| 2026-05-04 10:44 | 53.50195 | 6.82585 | 38005 ft | 485 kts | 40° |
| 2026-05-04 10:45 | 53.52681 | 6.86416 | 38002 ft | 485 kts | 40° |
| 2026-05-04 10:45 | 53.57673 | 6.94048 | 38009 ft | 484 kts | 39° |
| 2026-05-04 10:46 | 53.62768 | 7.01335 | 38008 ft | 483 kts | 38° |
| 2026-05-04 10:46 | 53.67931 | 7.08591 | 38019 ft | 483 kts | 38° |
| 2026-05-04 10:47 | 53.73079 | 7.15884 | 38019 ft | 483 kts | 38° |
| 2026-05-04 10:47 | 53.78206 | 7.23236 | 38034 ft | 483 kts | 38° |
| 2026-05-04 10:49 | 54.01514 | 7.42998 | 38023 ft | 472 kts | 7° |
| 2026-05-04 10:50 | 54.07915 | 7.44997 | 38028 ft | 470 kts | 6° |
| 2026-05-04 10:52 | 54.33630 | 7.53060 | 38025 ft | 469 kts | 7° |
| 2026-05-04 10:52 | 54.40043 | 7.55119 | 38019 ft | 469 kts | 7° |
| 2026-05-04 10:54 | 54.65665 | 7.63398 | 38029 ft | 469 kts | 7° |
| 2026-05-04 10:56 | 54.87965 | 7.71731 | 38028 ft | 474 kts | 18° |
| 2026-05-04 10:56 | 54.91023 | 7.73909 | 38032 ft | 475 kts | 20° |
| 2026-05-04 10:57 | 54.97065 | 7.78629 | 38024 ft | 476 kts | 21° |
| 2026-05-04 10:57 | 55.03035 | 7.83463 | 38032 ft | 476 kts | 21° |
| 2026-05-04 10:58 | 55.09052 | 7.88328 | 38021 ft | 476 kts | 21° |
| 2026-05-04 10:58 | 55.15071 | 7.93171 | 38022 ft | 476 kts | 21° |
| 2026-05-04 10:59 | 55.21090 | 7.98015 | 38016 ft | 476 kts | 21° |
| 2026-05-04 10:59 | 55.27070 | 8.02842 | 38032 ft | 476 kts | 21° |
| 2026-05-04 11:00 | 55.33086 | 8.07717 | 38013 ft | 476 kts | 21° |
| 2026-05-04 11:02 | 55.57073 | 8.27342 | 38002 ft | 476 kts | 24° |
| 2026-05-04 11:05 | 55.93672 | 8.88754 | 37958 ft | 486 kts | 43° |
| 2026-05-04 11:06 | 55.98449 | 8.97291 | 37980 ft | 486 kts | 43° |
| 2026-05-04 11:06 | 56.03181 | 9.05782 | 37955 ft | 485 kts | 43° |
| 2026-05-04 11:10 | 56.36389 | 9.66377 | 37919 ft | 487 kts | 43° |
| 2026-05-04 11:12 | 56.55264 | 10.01522 | 37900 ft | 490 kts | 43° |
| 2026-05-04 11:12 | 56.59995 | 10.10413 | 37900 ft | 490 kts | 43° |
| 2026-05-04 11:13 | 56.64687 | 10.19266 | 37894 ft | 490 kts | 43° |
| 2026-05-04 11:13 | 56.69398 | 10.28189 | 37922 ft | 490 kts | 43° |
| 2026-05-04 11:14 | 56.70197 | 10.29704 | 37896 ft | 490 kts | 43° |
| 2026-05-04 11:16 | 56.92870 | 10.73158 | 37898 ft | 491 kts | 44° |
| 2026-05-04 11:16 | 56.97567 | 10.82264 | 37869 ft | 492 kts | 44° |
| 2026-05-04 11:17 | 57.02260 | 10.91398 | 37863 ft | 492 kts | 44° |
| 2026-05-04 11:19 | 57.20927 | 11.28126 | 37857 ft | 493 kts | 45° |
| 2026-05-04 11:19 | 57.25406 | 11.37602 | 37857 ft | 493 kts | 47° |
| 2026-05-04 11:20 | 57.29842 | 11.47282 | 37853 ft | 494 kts | 47° |
| 2026-05-04 11:20 | 57.34279 | 11.56980 | 37854 ft | 494 kts | 47° |
| 2026-05-04 11:22 | 57.52016 | 11.95857 | 37842 ft | 495 kts | 47° |
| 2026-05-04 11:23 | 57.56447 | 12.05665 | 37848 ft | 495 kts | 47° |
| 2026-05-04 11:25 | 57.71918 | 12.40237 | 37827 ft | 498 kts | 47° |
| 2026-05-04 11:25 | 57.76339 | 12.50210 | 37825 ft | 498 kts | 47° |
| 2026-05-04 11:27 | 57.96140 | 12.95399 | 37781 ft | 499 kts | 48° |
| 2026-05-04 11:28 | 58.00533 | 13.05542 | 37792 ft | 500 kts | 48° |
| 2026-05-04 11:28 | 58.04920 | 13.15717 | 37781 ft | 500 kts | 49° |
| 2026-05-04 11:29 | 58.09268 | 13.25843 | 37779 ft | 500 kts | 49° |
| 2026-05-04 11:29 | 58.13638 | 13.36064 | 37773 ft | 500 kts | 49° |
| 2026-05-04 11:33 | 58.44014 | 14.08365 | 37664 ft | 495 kts | 50° |
| 2026-05-04 11:33 | 58.46098 | 14.13413 | 37334 ft | 489 kts | 50° |
| 2026-05-04 11:33 | 58.48218 | 14.18551 | 36338 ft | 498 kts | 49° |
| 2026-05-04 11:34 | 58.50375 | 14.23787 | 35456 ft | 504 kts | 49° |
| 2026-05-04 11:34 | 58.52557 | 14.29093 | 34582 ft | 510 kts | 49° |
| 2026-05-04 11:34 | 58.54738 | 14.34525 | 33631 ft | 519 kts | 52° |
| 2026-05-04 11:34 | 58.56772 | 14.40198 | 33022 ft | 515 kts | 54° |
| 2026-05-04 11:35 | 58.58755 | 14.45891 | 32353 ft | 512 kts | 54° |
| 2026-05-04 11:35 | 58.60727 | 14.51576 | 31589 ft | 512 kts | 54° |
| 2026-05-04 11:35 | 58.62698 | 14.57257 | 30790 ft | 511 kts | 54° |
| 2026-05-04 11:35 | 58.64639 | 14.62856 | 30067 ft | 510 kts | 55° |
| 2026-05-04 11:36 | 58.66598 | 14.68516 | 29205 ft | 509 kts | 55° |
| 2026-05-04 11:36 | 58.68558 | 14.74188 | 28176 ft | 510 kts | 55° |
| 2026-05-04 11:36 | 58.70524 | 14.79886 | 27120 ft | 512 kts | 55° |
| 2026-05-04 11:36 | 58.72494 | 14.85609 | 26049 ft | 514 kts | 55° |
| 2026-05-04 11:37 | 58.74472 | 14.91369 | 25003 ft | 517 kts | 55° |
| 2026-05-04 11:37 | 58.76455 | 14.97159 | 24165 ft | 516 kts | 55° |
| 2026-05-04 11:37 | 58.78389 | 15.02825 | 24070 ft | 496 kts | 55° |
| 2026-05-04 11:37 | 58.80226 | 15.08220 | 24043 ft | 486 kts | 54° |
| 2026-05-04 11:38 | 58.82095 | 15.13712 | 24012 ft | 492 kts | 54° |
| 2026-05-04 11:38 | 58.83972 | 15.19237 | 23977 ft | 493 kts | 55° |
| 2026-05-04 11:38 | 58.85851 | 15.24784 | 23943 ft | 493 kts | 55° |
| 2026-05-04 11:38 | 58.87725 | 15.30333 | 23914 ft | 493 kts | 55° |
| 2026-05-04 11:39 | 58.89598 | 15.35891 | 23880 ft | 493 kts | 55° |
| 2026-05-04 11:39 | 58.91464 | 15.41442 | 23827 ft | 493 kts | 55° |
| 2026-05-04 11:40 | 59.02921 | 15.75791 | 23713 ft | 516 kts | 56° |
| 2026-05-04 11:41 | 59.04864 | 15.81654 | 23715 ft | 516 kts | 56° |
| 2026-05-04 11:41 | 59.06807 | 15.87521 | 23712 ft | 515 kts | 56° |
| 2026-05-04 11:41 | 59.08735 | 15.93357 | 23703 ft | 512 kts | 56° |
| 2026-05-04 11:41 | 59.10658 | 15.99184 | 23705 ft | 511 kts | 56° |
| 2026-05-04 11:42 | 59.12575 | 16.05008 | 23708 ft | 511 kts | 56° |
| 2026-05-04 11:42 | 59.14499 | 16.10830 | 23705 ft | 511 kts | 54° |
| 2026-05-04 11:42 | 59.16638 | 16.16364 | 23741 ft | 513 kts | 50° |
| 2026-05-04 11:42 | 59.18827 | 16.21730 | 23692 ft | 507 kts | 49° |
| 2026-05-04 11:43 | 59.20996 | 16.26980 | 23624 ft | 487 kts | 49° |
| 2026-05-04 11:43 | 59.23112 | 16.32080 | 23592 ft | 486 kts | 49° |
| 2026-05-04 11:43 | 59.25253 | 16.37229 | 23565 ft | 489 kts | 49° |
| 2026-05-04 11:43 | 59.27424 | 16.42455 | 23342 ft | 501 kts | 49° |
| 2026-05-04 11:44 | 59.29624 | 16.47764 | 22338 ft | 503 kts | 49° |
| 2026-05-04 11:44 | 59.31832 | 16.53105 | 21136 ft | 505 kts | 49° |
| 2026-05-04 11:44 | 59.34034 | 16.58446 | 20147 ft | 502 kts | 49° |
| 2026-05-04 11:44 | 59.36213 | 16.63743 | 19303 ft | 496 kts | 49° |
| 2026-05-04 11:45 | 59.38336 | 16.68914 | 18476 ft | 490 kts | 49° |
| 2026-05-04 11:45 | 59.40461 | 16.74103 | 17571 ft | 486 kts | 49° |
| 2026-05-04 11:45 | 59.42558 | 16.79233 | 16761 ft | 478 kts | 49° |
| 2026-05-04 11:45 | 59.44622 | 16.84294 | 15880 ft | 471 kts | 49° |
| 2026-05-04 11:46 | 59.46656 | 16.89292 | 15043 ft | 465 kts | 49° |
| 2026-05-04 11:46 | 59.48661 | 16.94227 | 14220 ft | 458 kts | 49° |
| 2026-05-04 11:46 | 59.50635 | 16.99096 | 13423 ft | 451 kts | 49° |
| 2026-05-04 11:46 | 59.52576 | 17.03896 | 12540 ft | 445 kts | 49° |
| 2026-05-04 11:47 | 59.54487 | 17.08631 | 11716 ft | 438 kts | 49° |
| 2026-05-04 11:47 | 59.56358 | 17.13278 | 11058 ft | 427 kts | 49° |
| 2026-05-04 11:47 | 59.58157 | 17.17754 | 10458 ft | 416 kts | 49° |
| 2026-05-04 11:47 | 59.59922 | 17.22156 | 9990 ft | 403 kts | 49° |
| 2026-05-04 11:48 | 59.61633 | 17.26430 | 9545 ft | 390 kts | 50° |
| 2026-05-04 11:48 | 59.63282 | 17.30554 | 9196 ft | 375 kts | 50° |
| 2026-05-04 11:48 | 59.64864 | 17.34519 | 8932 ft | 359 kts | 50° |
| 2026-05-04 11:48 | 59.66372 | 17.38306 | 8677 ft | 343 kts | 49° |
| 2026-05-04 11:49 | 59.67816 | 17.41937 | 8455 ft | 329 kts | 49° |
| 2026-05-04 11:49 | 59.69199 | 17.45420 | 8238 ft | 315 kts | 49° |
| 2026-05-04 11:49 | 59.70513 | 17.48734 | 7954 ft | 306 kts | 49° |
| 2026-05-04 11:49 | 59.71842 | 17.52083 | 7516 ft | 304 kts | 49° |
| 2026-05-04 11:50 | 59.73121 | 17.55313 | 7126 ft | 300 kts | 49° |
| 2026-05-04 11:50 | 59.74329 | 17.58676 | 6717 ft | 300 kts | 60° |
| 2026-05-04 11:50 | 59.75074 | 17.62514 | 6327 ft | 298 kts | 72° |
| 2026-05-04 11:50 | 59.75617 | 17.66469 | 5906 ft | 296 kts | 75° |
| 2026-05-04 11:51 | 59.76123 | 17.70415 | 5493 ft | 293 kts | 75° |
| 2026-05-04 11:51 | 59.76619 | 17.74310 | 5079 ft | 291 kts | 75° |
| 2026-05-04 11:51 | 59.77119 | 17.78194 | 4591 ft | 290 kts | 75° |
| 2026-05-04 11:51 | 59.77620 | 17.82072 | 4133 ft | 290 kts | 75° |
| 2026-05-04 11:52 | 59.78104 | 17.85816 | 3983 ft | 276 kts | 75° |
| 2026-05-04 11:52 | 59.78566 | 17.89385 | 3978 ft | 259 kts | 75° |
| 2026-05-04 11:52 | 59.78999 | 17.92735 | 3976 ft | 242 kts | 75° |
| 2026-05-04 11:52 | 59.79414 | 17.95958 | 3669 ft | 241 kts | 76° |
| 2026-05-04 11:53 | 59.79454 | 17.99182 | 3500 ft | 231 kts | 109° |
| 2026-05-04 11:53 | 59.78567 | 18.01592 | 3303 ft | 206 kts | 153° |
| 2026-05-04 11:53 | 59.77315 | 18.02098 | 3049 ft | 174 kts | 196° |
| 2026-05-04 11:53 | 59.76235 | 18.01319 | 2790 ft | 159 kts | 206° |
| 2026-05-04 11:55 | 59.69338 | 17.97594 | 1407 ft | 144 kts | 194° |
| 2026-05-04 11:55 | 59.68373 | 17.97229 | 1100 ft | 138 kts | 193° |
| 2026-05-04 11:56 | 59.67459 | 17.96891 | 786 ft | 131 kts | 192° |
| 2026-05-04 11:56 | 59.66565 | 17.96551 | 599 ft | 133 kts | 193° |
| 2026-05-04 11:56 | 59.65677 | 17.96212 | 403 ft | 130 kts | 193° |
| 2026-05-04 11:56 | 59.64792 | 17.95868 | 208 ft | 129 kts | 191° |
| 2026-05-04 11:57 | 59.63979 | 17.95561 | 146 ft | 87 kts | 189° |
| 2026-05-04 11:57 | 59.63637 | 17.95439 | 148 ft | 43 kts | 190° |
| 2026-05-04 11:57 | 59.63370 | 17.95244 | 143 ft | 40 kts | 216° |
| 2026-05-04 11:57 | 59.63248 | 17.95029 | 141 ft | 16 kts | 243° |
| 2026-05-04 11:58 | 59.63289 | 17.94908 | 141 ft | 11 kts | 3° |
| 2026-05-04 11:58 | 59.63367 | 17.94931 | 141 ft | 11 kts | 11° |
| 2026-05-04 11:58 | 59.63446 | 17.94961 | 141 ft | 12 kts | 11° |
| 2026-05-04 11:58 | 59.63529 | 17.94992 | 141 ft | 12 kts | 10° |
| 2026-05-04 11:59 | 59.63616 | 17.95022 | 141 ft | 13 kts | 10° |
| 2026-05-04 11:59 | 59.63718 | 17.95059 | 141 ft | 18 kts | 11° |
| 2026-05-04 11:59 | 59.63862 | 17.95114 | 141 ft | 24 kts | 11° |
| 2026-05-04 11:59 | 59.64041 | 17.95175 | 141 ft | 28 kts | 10° |
| 2026-05-04 12:00 | 59.64249 | 17.95231 | 141 ft | 31 kts | 353° |
| 2026-05-04 12:00 | 59.64399 | 17.94966 | 141 ft | 31 kts | 286° |
| 2026-05-04 12:00 | 59.64342 | 17.94580 | 141 ft | 30 kts | 238° |
| 2026-05-04 12:00 | 59.64225 | 17.94214 | 141 ft | 32 kts | 237° |
| 2026-05-04 12:01 | 59.64104 | 17.93837 | 141 ft | 34 kts | 237° |
| 2026-05-04 12:01 | 59.63991 | 17.93430 | 141 ft | 34 kts | 260° |
| 2026-05-04 12:02 | 59.64248 | 17.92747 | 141 ft | 7 kts | 18° |
| 2026-05-04 12:03 | 59.64315 | 17.92833 | 141 ft | 8 kts | 37° |
| 2026-05-04 12:03 | 59.64329 | 17.92854 | 141 ft | 0 kts | 36° |
| 2026-05-04 12:03 | 59.64333 | 17.92859 | 141 ft | 1 kts | 36° |
| 2026-05-04 12:03 | 59.64340 | 17.92869 | 141 ft | 0 kts | 36° |